Portada
METAR-TAF:

METAR-TAF

Aeropuertos :

Air Force Base Waterkloof

Waterkloof, Sudáfrica

latitud: 25-50S, longitud: 028-13E, altitud: 1498 m

METAR: falta

Hora: 15:33 (13:33 UTC)

Pronóstico

El informe se hizo hace 7 horas y 33 minutos, a las 06:00 UTC
Pronóstico válido del 23 a las 07 UTC al 23 a las 18 UTC
Viento 3 kt con dirección variable
Visibilidad 10 km o más
sin nubes por debajo de 1500 m y sin presencia de cumulonimbus.
A partir de las 23 a las 1300 UTC
Viento 8 kt del sur-suroeste
Visibilidad 10 km o más
sin nubes por debajo de 1500 m y sin presencia de cumulonimbus.

TAF: FAWK 230600Z 2307/2318 VRB03KT CAVOK TX29/2313Z TN20/2318Z FM231300 21008KT CAVOK

Observaciones y pronósticos meteorológicos de más de 4000 aeropuertos (mensajes METAR y TAF).

Los puntos amarillos y rojos representan las estaciones disponibles.

Ponga el ratón en el punto deseado para ver el nombre de la estación.

Haga clic para ver las observaciones y los pronósticos meteorológicos.

Para cambiar el mapa : haga clic en los botones verdes con una cruz de color negro para hacer un zoom, en el botón verde con un guión para alejar o en las flechas verdes para mapas adyacentes.


METAR-TAF: